Terminal Aerodrome Forecast
Issued by NWS Twin Cities, MN

Home | Current Version | Previous Version | Graphics & Text | Print | Product List | Glossary On
Versions: 1 2 3 4 5 6 7 8 9 10 11 12 13 14 15 16 17 18 19 20 21 22 23 24 25 26 27 28 29 30 31 32 33 34 35
000
FTUS43 KMPX 272100 AAA
TAFMSP
TAF AMD
KMSP 272125Z 2721/2824 10004KT P6SM FEW035 SCT090 BKN250
     FM280700 12004KT P6SM OVC100
     FM281200 11004KT P6SM SCT060 OVC080
     FM281500 12007KT P6SM VCSH OVC050
     FM281800 12007KT 5SM -SHRA BKN020 OVC035
      TEMPO 2820/2824 3SM -TSRA BKN015 OVC020CB=

USA.gov is the U.S. government's official web portal to all federal, state and local government web resources and services.